CheckWX is a tool to help pilots better visualize weather data.  It is not intended as a substitute for an official pre-flight weather briefing.

08:08:25 UTC

KTME METAR
Houston Executive Airport
Houston, Texas, USA
Current

13 mins ago

KTME 060755Z AUTO 21006KT 9SM CLR 17/17 A3002 RMK AO2
Observed
Dec-6 @ 07:55 UTC
Wind
  • 210° at 6 KTS
Visibility
9 SM
Flight Rules
VFR
Cloud Levels
  • Clear skies
Temperature
17°C / 63°F
Dewpoint
17°C / 63°F
Humidity
100%
Altimeter
30.02" Hg
Pressure
1016.62 hPa
Previous

33 mins ago

KTME 060735Z AUTO 21003KT 5SM BR CLR 16/16 A3002 RMK AO2
Observed
Dec-6 @ 07:35 UTC
Wind
  • 210° at 3 KTS
Visibility
5 SM
Flight Rules
MVFR
Conditions
Mist
Cloud Levels
  • Clear skies
Temperature
16°C / 61°F
Dewpoint
16°C / 61°F
Humidity
100%
Altimeter
30.02" Hg
Pressure
1016.62 hPa
Previous

53 mins ago

KTME 060715Z AUTO 20005KT 10SM CLR 16/16 A3002 RMK AO2
Observed
Dec-6 @ 07:15 UTC
Wind
  • 200° at 5 KTS
Visibility
10 SM
Flight Rules
VFR
Cloud Levels
  • Clear skies
Temperature
16°C / 61°F
Dewpoint
16°C / 61°F
Humidity
100%
Altimeter
30.02" Hg
Pressure
1016.62 hPa